sensor_id;sensor_type;location;lat;lon;timestamp;temperature;humidity
38241;DHT22;24037;49.536;8.500;2023-05-07T00:02:02;13.00;1.00
38241;DHT22;24037;49.536;8.500;2023-05-07T00:04:29;13.00;1.00
38241;DHT22;24037;49.536;8.500;2023-05-07T00:07:02;12.90;1.00
38241;DHT22;24037;49.536;8.500;2023-05-07T00:09:28;12.90;1.00
38241;DHT22;24037;49.536;8.500;2023-05-07T00:11:54;12.80;1.00
38241;DHT22;24037;49.536;8.500;2023-05-07T00:14:21;12.80;1.00
38241;DHT22;24037;49.536;8.500;2023-05-07T00:16:47;12.70;1.00
38241;DHT22;24037;49.536;8.500;2023-05-07T00:19:13;12.60;1.00
38241;DHT22;24037;49.536;8.500;2023-05-07T00:21:39;12.60;1.00
38241;DHT22;24037;49.536;8.500;2023-05-07T00:24:05;12.50;1.00
38241;DHT22;24037;49.536;8.500;2023-05-07T00:26:32;12.50;1.00
38241;DHT22;24037;49.536;8.500;2023-05-07T00:28:58;12.50;1.00
38241;DHT22;24037;49.536;8.500;2023-05-07T00:31:24;12.50;1.00
38241;DHT22;24037;49.536;8.500;2023-05-07T00:33:50;12.50;1.00
38241;DHT22;24037;49.536;8.500;2023-05-07T00:36:17;12.50;1.00
38241;DHT22;24037;49.536;8.500;2023-05-07T00:38:43;12.50;1.00
38241;DHT22;24037;49.536;8.500;2023-05-07T00:41:09;12.40;1.00
38241;DHT22;24037;49.536;8.500;2023-05-07T00:43:35;12.40;1.00
38241;DHT22;24037;49.536;8.500;2023-05-07T00:46:02;12.40;1.00
38241;DHT22;24037;49.536;8.500;2023-05-07T00:48:28;12.30;1.00
38241;DHT22;24037;49.536;8.500;2023-05-07T00:50:55;12.30;1.00
38241;DHT22;24037;49.536;8.500;2023-05-07T00:53:21;12.20;1.00
38241;DHT22;24037;49.536;8.500;2023-05-07T00:55:48;12.10;1.00
38241;DHT22;24037;49.536;8.500;2023-05-07T00:58:16;12.10;1.00
38241;DHT22;24037;49.536;8.500;2023-05-07T01:00:42;12.10;1.00
38241;DHT22;24037;49.536;8.500;2023-05-07T01:03:09;12.10;1.00
38241;DHT22;24037;49.536;8.500;2023-05-07T01:05:35;12.10;1.00
38241;DHT22;24037;49.536;8.500;2023-05-07T01:08:02;11.90;1.00
38241;DHT22;24037;49.536;8.500;2023-05-07T01:10:30;11.70;1.00
38241;DHT22;24037;49.536;8.500;2023-05-07T01:12:58;11.70;3.90
38241;DHT22;24037;49.536;8.500;2023-05-07T01:15:25;11.60;11.40
38241;DHT22;24037;49.536;8.500;2023-05-07T01:17:52;11.50;26.90
38241;DHT22;24037;49.536;8.500;2023-05-07T01:20:24;11.40;36.40
38241;DHT22;24037;49.536;8.500;2023-05-07T01:22:53;11.40;45.50
38241;DHT22;24037;49.536;8.500;2023-05-07T01:25:20;11.30;50.10
38241;DHT22;24037;49.536;8.500;2023-05-07T01:27:51;11.30;55.00
38241;DHT22;24037;49.536;8.500;2023-05-07T01:30:20;11.40;63.00
38241;DHT22;24037;49.536;8.500;2023-05-07T01:33:12;11.50;64.30
38241;DHT22;24037;49.536;8.500;2023-05-07T01:35:43;11.60;45.30
38241;DHT22;24037;49.536;8.500;2023-05-07T01:38:11;11.60;29.00
38241;DHT22;24037;49.536;8.500;2023-05-07T01:40:38;11.60;25.90
38241;DHT22;24037;49.536;8.500;2023-05-07T01:43:05;11.60;27.30
38241;DHT22;24037;49.536;8.500;2023-05-07T01:45:34;11.60;27.90
38241;DHT22;24037;49.536;8.500;2023-05-07T01:48:02;11.50;30.50
38241;DHT22;24037;49.536;8.500;2023-05-07T01:50:30;11.50;37.00
38241;DHT22;24037;49.536;8.500;2023-05-07T01:52:56;11.50;39.90
38241;DHT22;24037;49.536;8.500;2023-05-07T01:55:23;11.50;41.40
38241;DHT22;24037;49.536;8.500;2023-05-07T01:57:50;11.40;44.20
38241;DHT22;24037;49.536;8.500;2023-05-07T02:00:16;11.40;47.90
38241;DHT22;24037;49.536;8.500;2023-05-07T02:02:44;11.50;53.80
38241;DHT22;24037;49.536;8.500;2023-05-07T02:05:22;11.50;43.80
38241;DHT22;24037;49.536;8.500;2023-05-07T02:07:55;11.50;40.50
38241;DHT22;24037;49.536;8.500;2023-05-07T02:10:22;11.50;35.40
38241;DHT22;24037;49.536;8.500;2023-05-07T02:12:48;11.50;29.40
38241;DHT22;24037;49.536;8.500;2023-05-07T02:15:14;11.40;30.30
38241;DHT22;24037;49.536;8.500;2023-05-07T02:18:04;11.40;37.60
38241;DHT22;24037;49.536;8.500;2023-05-07T02:20:32;11.40;32.00
38241;DHT22;24037;49.536;8.500;2023-05-07T02:22:59;11.40;30.60
38241;DHT22;24037;49.536;8.500;2023-05-07T02:25:28;11.30;33.70
38241;DHT22;24037;49.536;8.500;2023-05-07T02:27:56;11.30;42.50
38241;DHT22;24037;49.536;8.500;2023-05-07T02:30:29;11.30;52.50
38241;DHT22;24037;49.536;8.500;2023-05-07T02:32:58;11.30;53.20
38241;DHT22;24037;49.536;8.500;2023-05-07T02:35:25;11.20;43.60
38241;DHT22;24037;49.536;8.500;2023-05-07T02:37:52;11.10;45.60
38241;DHT22;24037;49.536;8.500;2023-05-07T02:40:18;11.10;50.90
38241;DHT22;24037;49.536;8.500;2023-05-07T02:42:45;11.10;58.30
38241;DHT22;24037;49.536;8.500;2023-05-07T02:45:11;11.20;65.50
38241;DHT22;24037;49.536;8.500;2023-05-07T02:47:38;11.20;74.00
38241;DHT22;24037;49.536;8.500;2023-05-07T02:50:05;11.30;66.40
38241;DHT22;24037;49.536;8.500;2023-05-07T02:52:32;11.30;49.50
38241;DHT22;24037;49.536;8.500;2023-05-07T02:54:58;11.30;36.10
38241;DHT22;24037;49.536;8.500;2023-05-07T02:57:24;11.20;27.10
38241;DHT22;24037;49.536;8.500;2023-05-07T02:59:50;11.20;33.10
38241;DHT22;24037;49.536;8.500;2023-05-07T03:02:19;11.20;44.00
38241;DHT22;24037;49.536;8.500;2023-05-07T03:04:46;11.20;47.00
38241;DHT22;24037;49.536;8.500;2023-05-07T03:07:12;11.20;51.10
38241;DHT22;24037;49.536;8.500;2023-05-07T03:09:38;11.20;54.30
38241;DHT22;24037;49.536;8.500;2023-05-07T03:12:05;11.20;60.30
38241;DHT22;24037;49.536;8.500;2023-05-07T03:14:32;11.20;59.50
38241;DHT22;24037;49.536;8.500;2023-05-07T03:16:58;11.20;66.90
38241;DHT22;24037;49.536;8.500;2023-05-07T03:19:24;11.20;69.20
38241;DHT22;24037;49.536;8.500;2023-05-07T03:21:51;11.10;63.70
38241;DHT22;24037;49.536;8.500;2023-05-07T03:24:17;11.10;75.40
38241;DHT22;24037;49.536;8.500;2023-05-07T03:26:43;11.20;92.80
38241;DHT22;24037;49.536;8.500;2023-05-07T03:29:09;11.30;97.00
38241;DHT22;24037;49.536;8.500;2023-05-07T03:31:35;11.20;86.90
38241;DHT22;24037;49.536;8.500;2023-05-07T03:34:02;11.20;94.20
38241;DHT22;24037;49.536;8.500;2023-05-07T03:36:28;11.30;93.40
38241;DHT22;24037;49.536;8.500;2023-05-07T03:38:56;11.20;92.20
38241;DHT22;24037;49.536;8.500;2023-05-07T03:41:25;11.30;94.20
38241;DHT22;24037;49.536;8.500;2023-05-07T03:43:52;11.30;96.80
38241;DHT22;24037;49.536;8.500;2023-05-07T03:46:18;11.30;96.40
38241;DHT22;24037;49.536;8.500;2023-05-07T03:48:44;11.30;97.20
38241;DHT22;24037;49.536;8.500;2023-05-07T03:51:13;11.20;97.10
38241;DHT22;24037;49.536;8.500;2023-05-07T03:53:39;11.20;96.40
38241;DHT22;24037;49.536;8.500;2023-05-07T03:56:06;11.20;96.40
38241;DHT22;24037;49.536;8.500;2023-05-07T03:58:36;11.20;95.50
38241;DHT22;24037;49.536;8.500;2023-05-07T04:01:07;11.20;92.60
38241;DHT22;24037;49.536;8.500;2023-05-07T04:03:33;11.10;88.50
38241;DHT22;24037;49.536;8.500;2023-05-07T04:06:00;11.10;91.20
38241;DHT22;24037;49.536;8.500;2023-05-07T04:08:27;11.10;92.10
38241;DHT22;24037;49.536;8.500;2023-05-07T04:10:55;11.10;73.00
38241;DHT22;24037;49.536;8.500;2023-05-07T04:13:22;11.10;73.70
38241;DHT22;24037;49.536;8.500;2023-05-07T04:15:48;11.00;74.90
38241;DHT22;24037;49.536;8.500;2023-05-07T04:18:17;10.90;84.40
38241;DHT22;24037;49.536;8.500;2023-05-07T04:20:46;11.00;91.30
38241;DHT22;24037;49.536;8.500;2023-05-07T04:23:14;10.90;90.00
38241;DHT22;24037;49.536;8.500;2023-05-07T04:25:41;11.00;84.10
38241;DHT22;24037;49.536;8.500;2023-05-07T04:28:21;11.00;83.10
38241;DHT22;24037;49.536;8.500;2023-05-07T04:30:48;11.00;82.90
38241;DHT22;24037;49.536;8.500;2023-05-07T04:33:15;11.00;84.60
38241;DHT22;24037;49.536;8.500;2023-05-07T04:35:45;11.20;90.00
38241;DHT22;24037;49.536;8.500;2023-05-07T04:38:12;11.30;76.30
38241;DHT22;24037;49.536;8.500;2023-05-07T04:40:38;11.50;52.70
38241;DHT22;24037;49.536;8.500;2023-05-07T04:43:06;11.60;31.60
38241;DHT22;24037;49.536;8.500;2023-05-07T04:45:39;11.60;9.70
38241;DHT22;24037;49.536;8.500;2023-05-07T04:48:09;11.70;1.00
38241;DHT22;24037;49.536;8.500;2023-05-07T04:50:36;11.80;1.00
38241;DHT22;24037;49.536;8.500;2023-05-07T04:53:03;11.80;1.00
38241;DHT22;24037;49.536;8.500;2023-05-07T04:55:30;11.80;1.00
38241;DHT22;24037;49.536;8.500;2023-05-07T04:57:56;11.80;1.00
38241;DHT22;24037;49.536;8.500;2023-05-07T05:00:23;11.80;1.00
38241;DHT22;24037;49.536;8.500;2023-05-07T05:02:52;12.00;1.00
38241;DHT22;24037;49.536;8.500;2023-05-07T05:05:21;12.10;1.00
38241;DHT22;24037;49.536;8.500;2023-05-07T05:07:50;12.30;1.00
38241;DHT22;24037;49.536;8.500;2023-05-07T05:10:17;12.50;1.00
38241;DHT22;24037;49.536;8.500;2023-05-07T05:12:44;12.60;1.00
38241;DHT22;24037;49.536;8.500;2023-05-07T05:15:12;12.70;1.00
38241;DHT22;24037;49.536;8.500;2023-05-07T05:17:39;12.70;1.00
38241;DHT22;24037;49.536;8.500;2023-05-07T05:20:06;12.70;1.00
38241;DHT22;24037;49.536;8.500;2023-05-07T05:22:33;12.80;1.00
38241;DHT22;24037;49.536;8.500;2023-05-07T05:25:01;12.90;1.00
38241;DHT22;24037;49.536;8.500;2023-05-07T05:27:27;12.90;1.00
38241;DHT22;24037;49.536;8.500;2023-05-07T05:29:54;12.90;1.00
38241;DHT22;24037;49.536;8.500;2023-05-07T05:32:21;12.90;1.00
38241;DHT22;24037;49.536;8.500;2023-05-07T05:34:48;13.10;1.00
38241;DHT22;24037;49.536;8.500;2023-05-07T05:37:14;13.30;1.00
38241;DHT22;24037;49.536;8.500;2023-05-07T05:39:42;13.60;1.00
38241;DHT22;24037;49.536;8.500;2023-05-07T05:42:10;13.80;1.00
38241;DHT22;24037;49.536;8.500;2023-05-07T05:44:37;13.90;1.00
38241;DHT22;24037;49.536;8.500;2023-05-07T05:47:03;13.90;1.00
38241;DHT22;24037;49.536;8.500;2023-05-07T05:49:30;13.80;1.00
38241;DHT22;24037;49.536;8.500;2023-05-07T05:51:56;13.90;1.00
38241;DHT22;24037;49.536;8.500;2023-05-07T05:54:24;13.90;1.00
38241;DHT22;24037;49.536;8.500;2023-05-07T05:56:50;14.20;1.00
38241;DHT22;24037;49.536;8.500;2023-05-07T05:59:17;14.40;1.00
38241;DHT22;24037;49.536;8.500;2023-05-07T06:01:43;14.50;1.00
38241;DHT22;24037;49.536;8.500;2023-05-07T06:04:09;14.60;1.00
38241;DHT22;24037;49.536;8.500;2023-05-07T06:06:36;14.50;1.00
38241;DHT22;24037;49.536;8.500;2023-05-07T06:09:02;14.60;1.00
38241;DHT22;24037;49.536;8.500;2023-05-07T06:11:36;14.90;1.00
38241;DHT22;24037;49.536;8.500;2023-05-07T06:14:02;15.50;1.00
38241;DHT22;24037;49.536;8.500;2023-05-07T06:16:30;15.70;99.90
38241;DHT22;24037;49.536;8.500;2023-05-07T06:18:57;16.10;99.90
38241;DHT22;24037;49.536;8.500;2023-05-07T06:21:26;16.40;99.90
38241;DHT22;24037;49.536;8.500;2023-05-07T06:23:52;16.50;99.90
38241;DHT22;24037;49.536;8.500;2023-05-07T06:26:21;16.50;99.90
38241;DHT22;24037;49.536;8.500;2023-05-07T06:28:48;16.40;99.90
38241;DHT22;24037;49.536;8.500;2023-05-07T06:31:17;16.30;99.90
38241;DHT22;24037;49.536;8.500;2023-05-07T06:33:51;16.70;99.90
38241;DHT22;24037;49.536;8.500;2023-05-07T06:36:18;16.90;99.90
38241;DHT22;24037;49.536;8.500;2023-05-07T06:38:45;16.90;99.90
38241;DHT22;24037;49.536;8.500;2023-05-07T06:41:13;16.70;99.90
38241;DHT22;24037;49.536;8.500;2023-05-07T06:43:40;16.60;99.90
38241;DHT22;24037;49.536;8.500;2023-05-07T06:46:30;16.30;99.90
38241;DHT22;24037;49.536;8.500;2023-05-07T06:48:56;16.40;99.90
38241;DHT22;24037;49.536;8.500;2023-05-07T06:51:23;16.50;99.90
38241;DHT22;24037;49.536;8.500;2023-05-07T06:53:49;16.50;99.90
38241;DHT22;24037;49.536;8.500;2023-05-07T06:56:16;16.60;99.90
38241;DHT22;24037;49.536;8.500;2023-05-07T06:58:42;16.90;99.90
38241;DHT22;24037;49.536;8.500;2023-05-07T07:01:09;17.10;99.90
38241;DHT22;24037;49.536;8.500;2023-05-07T07:03:37;17.20;99.90
38241;DHT22;24037;49.536;8.500;2023-05-07T07:06:04;17.30;99.90
38241;DHT22;24037;49.536;8.500;2023-05-07T07:08:30;17.40;99.90
38241;DHT22;24037;49.536;8.500;2023-05-07T07:10:57;17.70;99.90
38241;DHT22;24037;49.536;8.500;2023-05-07T07:13:23;17.60;99.90
38241;DHT22;24037;49.536;8.500;2023-05-07T07:15:49;17.60;99.90
38241;DHT22;24037;49.536;8.500;2023-05-07T07:18:17;17.70;99.90
38241;DHT22;24037;49.536;8.500;2023-05-07T07:20:45;17.70;99.90
38241;DHT22;24037;49.536;8.500;2023-05-07T07:23:11;17.80;99.90
38241;DHT22;24037;49.536;8.500;2023-05-07T07:25:37;17.70;99.90
38241;DHT22;24037;49.536;8.500;2023-05-07T07:28:05;17.90;99.90
38241;DHT22;24037;49.536;8.500;2023-05-07T07:30:31;18.10;99.90
38241;DHT22;24037;49.536;8.500;2023-05-07T07:32:57;18.00;99.90
38241;DHT22;24037;49.536;8.500;2023-05-07T07:35:29;18.00;99.90
38241;DHT22;24037;49.536;8.500;2023-05-07T07:37:56;18.10;99.90
38241;DHT22;24037;49.536;8.500;2023-05-07T07:40:22;18.20;99.90
38241;DHT22;24037;49.536;8.500;2023-05-07T07:42:49;18.40;99.90
38241;DHT22;24037;49.536;8.500;2023-05-07T07:45:15;18.30;99.90
38241;DHT22;24037;49.536;8.500;2023-05-07T07:47:46;18.10;99.90
38241;DHT22;24037;49.536;8.500;2023-05-07T07:50:12;18.00;99.90
38241;DHT22;24037;49.536;8.500;2023-05-07T07:52:39;17.90;99.90
38241;DHT22;24037;49.536;8.500;2023-05-07T07:55:07;18.00;99.90
38241;DHT22;24037;49.536;8.500;2023-05-07T07:57:34;18.00;99.90
38241;DHT22;24037;49.536;8.500;2023-05-07T08:00:01;17.90;99.90
38241;DHT22;24037;49.536;8.500;2023-05-07T08:02:31;17.90;99.90
38241;DHT22;24037;49.536;8.500;2023-05-07T08:04:58;17.80;99.90
38241;DHT22;24037;49.536;8.500;2023-05-07T08:07:24;18.00;99.90
38241;DHT22;24037;49.536;8.500;2023-05-07T08:09:50;18.20;99.90
38241;DHT22;24037;49.536;8.500;2023-05-07T08:12:22;18.20;99.90
38241;DHT22;24037;49.536;8.500;2023-05-07T08:14:48;18.00;99.90
38241;DHT22;24037;49.536;8.500;2023-05-07T08:17:15;17.90;99.90
38241;DHT22;24037;49.536;8.500;2023-05-07T08:19:43;17.90;99.90
38241;DHT22;24037;49.536;8.500;2023-05-07T08:22:12;17.90;99.90
38241;DHT22;24037;49.536;8.500;2023-05-07T08:24:38;17.90;99.90
38241;DHT22;24037;49.536;8.500;2023-05-07T08:27:05;18.00;99.90
38241;DHT22;24037;49.536;8.500;2023-05-07T08:29:31;18.20;99.90
38241;DHT22;24037;49.536;8.500;2023-05-07T08:31:59;18.40;99.90
38241;DHT22;24037;49.536;8.500;2023-05-07T08:34:25;18.40;99.90
38241;DHT22;24037;49.536;8.500;2023-05-07T08:36:53;18.50;99.90
38241;DHT22;24037;49.536;8.500;2023-05-07T08:39:22;18.50;99.90
38241;DHT22;24037;49.536;8.500;2023-05-07T08:41:54;18.60;99.90
38241;DHT22;24037;49.536;8.500;2023-05-07T08:44:22;18.60;99.90
38241;DHT22;24037;49.536;8.500;2023-05-07T08:46:52;18.70;99.90
38241;DHT22;24037;49.536;8.500;2023-05-07T08:49:20;18.80;99.90
38241;DHT22;24037;49.536;8.500;2023-05-07T08:51:47;18.90;99.90
38241;DHT22;24037;49.536;8.500;2023-05-07T08:54:16;19.10;99.90
38241;DHT22;24037;49.536;8.500;2023-05-07T08:56:42;19.10;99.90
38241;DHT22;24037;49.536;8.500;2023-05-07T08:59:08;19.20;99.90
38241;DHT22;24037;49.536;8.500;2023-05-07T09:01:35;19.10;99.90
38241;DHT22;24037;49.536;8.500;2023-05-07T09:04:02;19.00;99.90
38241;DHT22;24037;49.536;8.500;2023-05-07T09:06:30;19.20;99.90
38241;DHT22;24037;49.536;8.500;2023-05-07T09:08:56;19.20;96.40
38241;DHT22;24037;49.536;8.500;2023-05-07T09:11:27;19.70;73.20
38241;DHT22;24037;49.536;8.500;2023-05-07T09:13:57;20.30;40.80
38241;DHT22;24037;49.536;8.500;2023-05-07T09:16:26;20.30;18.30
38241;DHT22;24037;49.536;8.500;2023-05-07T09:18:53;20.30;22.40
38241;DHT22;24037;49.536;8.500;2023-05-07T09:21:21;20.40;18.60
38241;DHT22;24037;49.536;8.500;2023-05-07T09:23:52;20.30;16.60
38241;DHT22;24037;49.536;8.500;2023-05-07T09:26:24;20.10;13.00
38241;DHT22;24037;49.536;8.500;2023-05-07T09:28:51;20.40;14.40
38241;DHT22;24037;49.536;8.500;2023-05-07T09:31:17;20.70;9.50
38241;DHT22;24037;49.536;8.500;2023-05-07T09:33:43;21.70;1.00
38241;DHT22;24037;49.536;8.500;2023-05-07T09:36:13;21.30;1.00
38241;DHT22;24037;49.536;8.500;2023-05-07T09:38:41;21.10;1.00
38241;DHT22;24037;49.536;8.500;2023-05-07T09:41:12;21.30;1.00
38241;DHT22;24037;49.536;8.500;2023-05-07T09:43:58;21.30;1.00
38241;DHT22;24037;49.536;8.500;2023-05-07T09:46:31;21.20;1.00
38241;DHT22;24037;49.536;8.500;2023-05-07T09:49:02;21.30;1.00
38241;DHT22;24037;49.536;8.500;2023-05-07T09:51:39;21.40;1.00
38241;DHT22;24037;49.536;8.500;2023-05-07T09:54:07;21.60;1.00
38241;DHT22;24037;49.536;8.500;2023-05-07T09:56:36;22.10;1.00
38241;DHT22;24037;49.536;8.500;2023-05-07T09:59:05;22.50;1.00
38241;DHT22;24037;49.536;8.500;2023-05-07T10:01:36;24.00;1.00
38241;DHT22;24037;49.536;8.500;2023-05-07T10:04:02;25.30;1.00
38241;DHT22;24037;49.536;8.500;2023-05-07T10:06:31;25.20;1.00
38241;DHT22;24037;49.536;8.500;2023-05-07T10:08:59;24.20;1.00
38241;DHT22;24037;49.536;8.500;2023-05-07T10:11:26;25.70;1.00
38241;DHT22;24037;49.536;8.500;2023-05-07T10:13:53;26.50;1.00
38241;DHT22;24037;49.536;8.500;2023-05-07T10:16:20;25.20;1.00
38241;DHT22;24037;49.536;8.500;2023-05-07T10:18:49;25.70;1.00
38241;DHT22;24037;49.536;8.500;2023-05-07T10:21:21;25.80;1.00
38241;DHT22;24037;49.536;8.500;2023-05-07T10:24:04;25.70;1.00
38241;DHT22;24037;49.536;8.500;2023-05-07T10:26:37;25.30;1.00
38241;DHT22;24037;49.536;8.500;2023-05-07T10:29:12;24.30;1.00
38241;DHT22;24037;49.536;8.500;2023-05-07T10:34:32;23.00;1.00
38241;DHT22;24037;49.536;8.500;2023-05-07T10:37:02;23.10;1.00
38241;DHT22;24037;49.536;8.500;2023-05-07T10:39:35;23.50;1.00
38241;DHT22;24037;49.536;8.500;2023-05-07T10:42:14;23.70;1.00
38241;DHT22;24037;49.536;8.500;2023-05-07T10:44:46;23.60;1.00
38241;DHT22;24037;49.536;8.500;2023-05-07T10:47:20;23.90;1.00
38241;DHT22;24037;49.536;8.500;2023-05-07T10:52:23;23.50;1.00
38241;DHT22;24037;49.536;8.500;2023-05-07T11:00:48;23.90;1.00
38241;DHT22;24037;49.536;8.500;2023-05-07T11:03:26;24.00;1.00
38241;DHT22;24037;49.536;8.500;2023-05-07T11:06:15;24.10;1.00
38241;DHT22;24037;49.536;8.500;2023-05-07T11:11:18;24.20;1.00
38241;DHT22;24037;49.536;8.500;2023-05-07T11:13:51;24.10;1.00
38241;DHT22;24037;49.536;8.500;2023-05-07T11:16:33;24.10;1.00
38241;DHT22;24037;49.536;8.500;2023-05-07T11:19:16;24.50;1.00
38241;DHT22;24037;49.536;8.500;2023-05-07T11:21:47;24.80;1.00
38241;DHT22;24037;49.536;8.500;2023-05-07T11:24:42;24.60;1.00
38241;DHT22;24037;49.536;8.500;2023-05-07T11:27:10;24.50;1.00
38241;DHT22;24037;49.536;8.500;2023-05-07T11:29:36;24.70;1.00
38241;DHT22;24037;49.536;8.500;2023-05-07T11:32:07;24.50;1.00
38241;DHT22;24037;49.536;8.500;2023-05-07T11:34:56;24.30;1.00
38241;DHT22;24037;49.536;8.500;2023-05-07T11:37:26;24.10;1.00
38241;DHT22;24037;49.536;8.500;2023-05-07T11:40:07;24.30;1.00
38241;DHT22;24037;49.536;8.500;2023-05-07T11:42:36;24.60;1.00
38241;DHT22;24037;49.536;8.500;2023-05-07T11:45:06;24.50;1.00
38241;DHT22;24037;49.536;8.500;2023-05-07T11:47:33;24.40;1.00
38241;DHT22;24037;49.536;8.500;2023-05-07T11:50:05;24.60;1.00
38241;DHT22;24037;49.536;8.500;2023-05-07T11:52:31;24.40;1.00
38241;DHT22;24037;49.536;8.500;2023-05-07T11:54:59;23.90;1.00
38241;DHT22;24037;49.536;8.500;2023-05-07T11:57:29;24.30;1.00
38241;DHT22;24037;49.536;8.500;2023-05-07T11:59:58;24.40;1.00
38241;DHT22;24037;49.536;8.500;2023-05-07T12:02:25;24.70;1.00
38241;DHT22;24037;49.536;8.500;2023-05-07T12:04:52;25.30;1.00
38241;DHT22;24037;49.536;8.500;2023-05-07T12:07:18;25.30;1.00
38241;DHT22;24037;49.536;8.500;2023-05-07T12:09:45;25.10;1.00
38241;DHT22;24037;49.536;8.500;2023-05-07T12:12:12;25.30;1.00
38241;DHT22;24037;49.536;8.500;2023-05-07T12:14:41;25.60;1.00
38241;DHT22;24037;49.536;8.500;2023-05-07T12:17:08;25.90;1.00
38241;DHT22;24037;49.536;8.500;2023-05-07T12:19:36;25.80;1.00
38241;DHT22;24037;49.536;8.500;2023-05-07T12:22:03;25.60;1.00
38241;DHT22;24037;49.536;8.500;2023-05-07T12:24:48;26.10;1.00
38241;DHT22;24037;49.536;8.500;2023-05-07T12:27:16;25.90;1.00
38241;DHT22;24037;49.536;8.500;2023-05-07T12:29:50;25.90;1.00
38241;DHT22;24037;49.536;8.500;2023-05-07T12:32:18;25.70;1.00
38241;DHT22;24037;49.536;8.500;2023-05-07T12:34:45;25.30;1.00
38241;DHT22;24037;49.536;8.500;2023-05-07T12:37:11;25.50;1.00
38241;DHT22;24037;49.536;8.500;2023-05-07T12:39:44;25.70;1.00
38241;DHT22;24037;49.536;8.500;2023-05-07T12:42:23;26.10;1.00
38241;DHT22;24037;49.536;8.500;2023-05-07T12:44:52;26.20;1.00
38241;DHT22;24037;49.536;8.500;2023-05-07T12:47:18;26.20;1.00
38241;DHT22;24037;49.536;8.500;2023-05-07T12:49:44;25.70;1.00
38241;DHT22;24037;49.536;8.500;2023-05-07T12:52:12;25.90;1.00
38241;DHT22;24037;49.536;8.500;2023-05-07T12:54:38;25.50;1.00
38241;DHT22;24037;49.536;8.500;2023-05-07T12:57:07;25.40;1.00
38241;DHT22;24037;49.536;8.500;2023-05-07T12:59:41;25.50;1.00
38241;DHT22;24037;49.536;8.500;2023-05-07T13:02:08;25.30;1.00
38241;DHT22;24037;49.536;8.500;2023-05-07T13:04:36;25.30;1.00
38241;DHT22;24037;49.536;8.500;2023-05-07T13:07:02;25.20;1.00
38241;DHT22;24037;49.536;8.500;2023-05-07T13:09:28;25.00;1.00
38241;DHT22;24037;49.536;8.500;2023-05-07T13:11:55;24.90;1.00
38241;DHT22;24037;49.536;8.500;2023-05-07T13:14:21;24.80;1.00
38241;DHT22;24037;49.536;8.500;2023-05-07T13:16:48;24.90;1.00
38241;DHT22;24037;49.536;8.500;2023-05-07T13:19:14;24.80;1.00
38241;DHT22;24037;49.536;8.500;2023-05-07T13:21:40;24.70;1.00
38241;DHT22;24037;49.536;8.500;2023-05-07T13:24:06;24.60;1.00
38241;DHT22;24037;49.536;8.500;2023-05-07T13:26:33;24.40;1.00
38241;DHT22;24037;49.536;8.500;2023-05-07T13:28:59;24.30;1.00
38241;DHT22;24037;49.536;8.500;2023-05-07T13:31:25;24.20;1.00
38241;DHT22;24037;49.536;8.500;2023-05-07T13:33:51;24.20;1.00
38241;DHT22;24037;49.536;8.500;2023-05-07T13:36:18;24.20;1.00
38241;DHT22;24037;49.536;8.500;2023-05-07T13:38:44;24.20;1.00
38241;DHT22;24037;49.536;8.500;2023-05-07T13:41:12;24.10;1.00
38241;DHT22;24037;49.536;8.500;2023-05-07T13:43:39;24.10;1.00
38241;DHT22;24037;49.536;8.500;2023-05-07T13:46:05;24.00;1.00
38241;DHT22;24037;49.536;8.500;2023-05-07T13:48:34;23.70;1.00
38241;DHT22;24037;49.536;8.500;2023-05-07T13:51:00;23.20;1.00
38241;DHT22;24037;49.536;8.500;2023-05-07T13:53:26;22.50;1.00
38241;DHT22;24037;49.536;8.500;2023-05-07T13:55:53;22.00;1.00
38241;DHT22;24037;49.536;8.500;2023-05-07T13:58:19;21.90;1.00
38241;DHT22;24037;49.536;8.500;2023-05-07T14:00:45;21.80;1.00
38241;DHT22;24037;49.536;8.500;2023-05-07T14:03:11;21.70;1.00
38241;DHT22;24037;49.536;8.500;2023-05-07T14:05:37;21.50;1.00
38241;DHT22;24037;49.536;8.500;2023-05-07T14:08:03;21.40;13.70
38241;DHT22;24037;49.536;8.500;2023-05-07T14:10:30;19.70;99.90
38241;DHT22;24037;49.536;8.500;2023-05-07T14:12:57;17.90;1.00
38241;DHT22;24037;49.536;8.500;2023-05-07T14:15:23;16.60;99.90
38241;DHT22;24037;49.536;8.500;2023-05-07T14:17:49;15.90;99.90
38241;DHT22;24037;49.536;8.500;2023-05-07T14:20:16;15.40;99.90
38241;DHT22;24037;49.536;8.500;2023-05-07T14:22:42;15.30;99.90
38241;DHT22;24037;49.536;8.500;2023-05-07T14:25:08;15.20;99.90
38241;DHT22;24037;49.536;8.500;2023-05-07T14:27:38;15.50;99.90
38241;DHT22;24037;49.536;8.500;2023-05-07T14:30:05;15.60;99.90
38241;DHT22;24037;49.536;8.500;2023-05-07T14:32:32;15.80;99.90
38241;DHT22;24037;49.536;8.500;2023-05-07T14:34:58;15.80;99.90
38241;DHT22;24037;49.536;8.500;2023-05-07T14:37:25;15.50;99.90
38241;DHT22;24037;49.536;8.500;2023-05-07T14:39:51;15.20;99.90
38241;DHT22;24037;49.536;8.500;2023-05-07T14:42:17;15.10;99.90
38241;DHT22;24037;49.536;8.500;2023-05-07T14:44:43;14.60;99.90
38241;DHT22;24037;49.536;8.500;2023-05-07T14:47:11;14.10;99.90
38241;DHT22;24037;49.536;8.500;2023-05-07T14:49:38;13.40;99.90
38241;DHT22;24037;49.536;8.500;2023-05-07T14:52:04;13.50;99.90
38241;DHT22;24037;49.536;8.500;2023-05-07T14:54:33;13.60;99.90
38241;DHT22;24037;49.536;8.500;2023-05-07T14:57:01;13.50;99.90
38241;DHT22;24037;49.536;8.500;2023-05-07T14:59:28;13.40;99.90
38241;DHT22;24037;49.536;8.500;2023-05-07T15:01:54;13.60;99.90
38241;DHT22;24037;49.536;8.500;2023-05-07T15:04:20;13.50;99.90
38241;DHT22;24037;49.536;8.500;2023-05-07T15:06:46;13.70;99.90
38241;DHT22;24037;49.536;8.500;2023-05-07T15:09:13;14.10;99.90
38241;DHT22;24037;49.536;8.500;2023-05-07T15:11:39;14.40;99.90
38241;DHT22;24037;49.536;8.500;2023-05-07T15:14:06;14.70;99.90
38241;DHT22;24037;49.536;8.500;2023-05-07T15:16:32;14.80;99.90
38241;DHT22;24037;49.536;8.500;2023-05-07T15:18:59;14.90;99.90
38241;DHT22;24037;49.536;8.500;2023-05-07T15:21:26;14.90;99.90
38241;DHT22;24037;49.536;8.500;2023-05-07T15:23:52;15.00;99.90
38241;DHT22;24037;49.536;8.500;2023-05-07T15:26:19;15.00;99.90
38241;DHT22;24037;49.536;8.500;2023-05-07T15:28:46;15.00;99.90
38241;DHT22;24037;49.536;8.500;2023-05-07T15:31:12;15.00;99.90
38241;DHT22;24037;49.536;8.500;2023-05-07T15:33:39;14.90;99.90
38241;DHT22;24037;49.536;8.500;2023-05-07T15:36:06;15.00;99.90
38241;DHT22;24037;49.536;8.500;2023-05-07T15:38:34;15.10;99.90
38241;DHT22;24037;49.536;8.500;2023-05-07T15:41:00;15.10;99.90
38241;DHT22;24037;49.536;8.500;2023-05-07T15:43:27;15.10;99.90
38241;DHT22;24037;49.536;8.500;2023-05-07T15:45:53;15.10;99.90
38241;DHT22;24037;49.536;8.500;2023-05-07T15:48:21;15.00;99.90
38241;DHT22;24037;49.536;8.500;2023-05-07T15:50:47;15.00;99.90
38241;DHT22;24037;49.536;8.500;2023-05-07T15:53:13;15.00;99.90
38241;DHT22;24037;49.536;8.500;2023-05-07T15:55:42;14.80;99.90
38241;DHT22;24037;49.536;8.500;2023-05-07T15:58:09;14.90;99.90